createdAt,value
2018-11-26T00:02:01.707Z,5.00
2018-11-26T00:04:31.535Z,5.00
2018-11-26T00:07:01.309Z,4.98
2018-11-26T00:09:31.160Z,5.00
2018-11-26T00:12:01.216Z,5.00
2018-11-26T00:14:31.086Z,4.96
2018-11-26T00:17:00.862Z,5.00
2018-11-26T00:19:30.705Z,5.01
2018-11-26T00:22:00.544Z,5.04
2018-11-26T00:24:30.547Z,5.06
2018-11-26T00:27:00.395Z,5.06
2018-11-26T00:29:30.311Z,5.10
2018-11-26T00:32:00.148Z,5.11
2018-11-26T00:34:29.986Z,5.11
2018-11-26T00:36:59.879Z,5.09
2018-11-26T00:39:29.722Z,5.06
2018-11-26T00:41:59.570Z,5.01
2018-11-26T00:44:29.417Z,5.01
2018-11-26T00:46:59.264Z,5.01
2018-11-26T00:49:29.074Z,5.01
2018-11-26T00:51:58.921Z,4.96
2018-11-26T00:54:28.798Z,4.98
2018-11-26T00:56:58.552Z,4.93
2018-11-26T00:59:28.418Z,4.92
2018-11-26T01:01:58.223Z,4.87
2018-11-26T01:04:28.011Z,4.87
2018-11-26T01:06:57.878Z,4.86
2018-11-26T01:09:27.676Z,4.85
2018-11-26T01:11:57.520Z,4.84
2018-11-26T01:14:27.299Z,4.78
2018-11-26T01:16:57.087Z,4.77
2018-11-26T01:19:26.959Z,4.76
2018-11-26T01:21:56.882Z,4.70
2018-11-26T01:24:26.732Z,4.72
2018-11-26T01:26:56.550Z,4.72
2018-11-26T01:29:26.415Z,4.73
2018-11-26T01:31:56.258Z,4.69
2018-11-26T01:34:26.136Z,4.69
2018-11-26T01:36:56.032Z,4.65
2018-11-26T01:39:25.867Z,4.62
2018-11-26T01:41:55.750Z,4.63
2018-11-26T01:44:25.561Z,4.62
2018-11-26T01:46:55.491Z,4.62
2018-11-26T01:49:25.340Z,4.61
2018-11-26T01:51:55.211Z,4.57
2018-11-26T01:54:24.973Z,4.52
2018-11-26T01:56:54.831Z,4.49
2018-11-26T01:59:24.755Z,4.44
2018-11-26T02:01:54.574Z,4.41
2018-11-26T02:04:24.487Z,4.41
2018-11-26T02:06:54.315Z,4.39
2018-11-26T02:09:24.196Z,4.33
2018-11-26T02:11:54.046Z,4.30
2018-11-26T02:14:23.964Z,4.30
2018-11-26T02:16:53.768Z,4.30
2018-11-26T02:19:23.588Z,4.30
2018-11-26T02:21:53.428Z,4.30
2018-11-26T02:24:23.315Z,4.31
2018-11-26T02:26:54.032Z,4.29
2018-11-26T02:29:23.850Z,4.32
2018-11-26T02:31:53.640Z,4.33
2018-11-26T02:34:23.465Z,4.33
2018-11-26T02:36:53.267Z,4.35
2018-11-26T02:39:23.073Z,4.39
2018-11-26T02:41:52.895Z,4.36
2018-11-26T02:44:22.734Z,4.35
2018-11-26T02:46:52.523Z,4.36
2018-11-26T02:49:22.355Z,4.34
2018-11-26T02:51:52.252Z,4.32
2018-11-26T02:54:22.097Z,4.32
2018-11-26T02:56:51.971Z,4.34
2018-11-26T02:59:21.792Z,4.31
2018-11-26T03:01:51.603Z,4.30
2018-11-26T03:04:21.423Z,4.28
2018-11-26T03:06:51.182Z,4.29
2018-11-26T03:09:21.096Z,4.30
2018-11-26T03:11:50.955Z,4.30
2018-11-26T03:14:20.803Z,4.24
2018-11-26T03:16:50.662Z,4.22
2018-11-26T03:19:20.595Z,4.22
2018-11-26T03:21:50.412Z,4.21
2018-11-26T03:24:20.289Z,4.26
2018-11-26T03:26:50.375Z,4.21
2018-11-26T03:29:20.327Z,4.17
2018-11-26T03:31:50.203Z,4.15
2018-11-26T03:34:20.019Z,4.18
2018-11-26T03:36:49.901Z,4.20
2018-11-26T03:39:19.721Z,4.16
2018-11-26T03:41:49.516Z,4.15
2018-11-26T03:44:19.380Z,4.13
2018-11-26T03:46:49.202Z,4.15
2018-11-26T03:49:19.103Z,4.15
2018-11-26T03:51:48.941Z,4.16
2018-11-26T03:54:18.773Z,4.16
2018-11-26T03:56:48.623Z,4.14
2018-11-26T03:59:18.467Z,4.11
2018-11-26T04:01:48.343Z,4.12
2018-11-26T04:04:18.240Z,4.13
2018-11-26T04:06:48.079Z,4.14
2018-11-26T04:09:17.987Z,4.17
2018-11-26T04:11:47.800Z,4.17
2018-11-26T04:14:17.587Z,4.17
2018-11-26T04:16:47.436Z,4.18
2018-11-26T04:19:17.581Z,4.15
2018-11-26T04:21:47.346Z,4.14
2018-11-26T04:24:17.149Z,4.12
2018-11-26T04:26:46.933Z,4.14
2018-11-26T04:29:17.939Z,4.12
2018-11-26T04:31:47.823Z,4.11
2018-11-26T04:34:17.623Z,4.08
2018-11-26T04:36:47.773Z,4.07
2018-11-26T04:39:17.551Z,4.09
2018-11-26T04:41:47.367Z,4.10
2018-11-26T04:44:17.219Z,4.12
2018-11-26T04:46:47.006Z,4.11
2018-11-26T04:49:16.859Z,4.07
2018-11-26T04:51:46.741Z,4.06
2018-11-26T04:54:16.531Z,4.09
2018-11-26T04:56:46.374Z,4.09
2018-11-26T04:59:16.208Z,4.01
2018-11-26T05:01:46.099Z,4.10
2018-11-26T05:04:15.995Z,4.08
2018-11-26T05:06:45.843Z,4.10
2018-11-26T05:09:15.700Z,4.10
2018-11-26T05:11:45.560Z,4.08
2018-11-26T05:14:15.395Z,4.07
2018-11-26T05:16:45.266Z,4.10
2018-11-26T05:19:15.115Z,4.08
2018-11-26T05:21:45.013Z,4.07
2018-11-26T05:24:14.882Z,4.06
2018-11-26T05:26:44.635Z,4.04
2018-11-26T05:29:14.467Z,4.09
2018-11-26T05:31:44.255Z,4.08
2018-11-26T05:34:14.103Z,4.10
2018-11-26T05:36:43.961Z,4.09
2018-11-26T05:39:13.822Z,4.11
2018-11-26T05:41:43.669Z,4.11
2018-11-26T05:44:13.525Z,4.14
2018-11-26T05:46:43.361Z,4.11
2018-11-26T05:49:13.132Z,4.12
2018-11-26T05:51:42.968Z,4.15
2018-11-26T05:54:12.875Z,4.12
2018-11-26T05:56:42.634Z,4.13
2018-11-26T05:59:12.541Z,4.15
2018-11-26T06:01:42.414Z,4.10
2018-11-26T06:04:12.220Z,4.10
2018-11-26T06:06:41.991Z,4.14
2018-11-26T06:09:12.044Z,4.13
2018-11-26T06:11:41.882Z,4.13
2018-11-26T06:14:11.712Z,4.13
2018-11-26T06:16:41.610Z,4.14
2018-11-26T06:19:11.526Z,4.08
2018-11-26T06:21:41.323Z,4.04
2018-11-26T06:24:11.106Z,4.06
2018-11-26T06:26:40.980Z,4.07
2018-11-26T06:29:10.797Z,4.06
2018-11-26T06:31:40.687Z,4.06
2018-11-26T06:34:10.519Z,4.04
2018-11-26T06:36:40.332Z,4.10
2018-11-26T06:39:11.718Z,4.06
2018-11-26T06:41:41.586Z,4.06
2018-11-26T06:44:11.407Z,4.08
2018-11-26T06:46:41.160Z,4.06
2018-11-26T06:49:10.991Z,4.07
2018-11-26T06:51:40.784Z,4.09
2018-11-26T06:54:10.619Z,4.07
2018-11-26T06:56:40.456Z,4.10
2018-11-26T06:59:10.246Z,4.07
2018-11-26T07:01:40.095Z,4.11
2018-11-26T07:04:10.011Z,4.14
2018-11-26T07:06:39.928Z,4.17
2018-11-26T07:09:09.880Z,4.17
2018-11-26T07:11:39.756Z,4.17
2018-11-26T07:14:09.584Z,4.23
2018-11-26T07:16:39.467Z,4.28
2018-11-26T07:19:09.255Z,4.30
2018-11-26T07:21:39.086Z,4.41
2018-11-26T07:24:08.935Z,4.50
2018-11-26T07:26:38.843Z,4.53
2018-11-26T07:29:08.755Z,4.59
2018-11-26T07:31:38.627Z,4.68
2018-11-26T07:34:08.486Z,4.70
2018-11-26T07:36:38.395Z,4.76
2018-11-26T07:39:09.459Z,4.80
2018-11-26T07:41:39.338Z,4.77
2018-11-26T07:44:10.908Z,4.79
2018-11-26T07:46:40.710Z,4.84
2018-11-26T07:49:10.493Z,4.84
2018-11-26T07:51:40.331Z,4.81
2018-11-26T07:54:10.174Z,4.83
2018-11-26T07:56:40.053Z,4.80
2018-11-26T07:59:09.886Z,4.82
2018-11-26T08:01:39.763Z,4.88
2018-11-26T08:04:09.601Z,4.88
2018-11-26T08:06:39.504Z,4.88
2018-11-26T08:09:09.639Z,4.92
2018-11-26T08:11:39.607Z,4.92
2018-11-26T08:14:09.472Z,4.98
2018-11-26T08:16:39.400Z,4.99
2018-11-26T08:19:09.324Z,5.05
2018-11-26T08:21:39.223Z,5.08
2018-11-26T08:24:09.125Z,5.13
2018-11-26T08:26:39.075Z,5.16
2018-11-26T08:29:08.947Z,5.17
2018-11-26T08:36:38.908Z,5.33
2018-11-26T08:39:14.526Z,5.35
2018-11-26T08:41:49.655Z,5.37
2018-11-26T08:44:27.711Z,5.39
2018-11-26T08:47:07.797Z,5.41
2018-11-26T08:49:37.774Z,5.43
2018-11-26T08:52:07.803Z,5.49
2018-11-26T08:54:37.701Z,5.62
2018-11-26T08:57:07.542Z,5.58
2018-11-26T08:59:37.515Z,5.59
2018-11-26T09:02:09.361Z,5.56
2018-11-26T09:04:45.750Z,5.64
2018-11-26T09:07:15.620Z,5.75
2018-11-26T09:09:45.491Z,5.87
2018-11-26T09:12:15.380Z,5.84
2018-11-26T09:14:45.160Z,5.85
2018-11-26T09:17:15.048Z,5.97
2018-11-26T09:19:44.948Z,6.07
2018-11-26T09:22:15.000Z,6.16
2018-11-26T09:24:44.816Z,6.16
2018-11-26T09:27:14.698Z,6.08
2018-11-26T09:29:44.555Z,6.15
2018-11-26T09:32:14.439Z,6.08
2018-11-26T09:34:44.299Z,6.14
2018-11-26T09:37:14.167Z,6.32
2018-11-26T09:39:44.043Z,6.40
2018-11-26T09:42:13.870Z,6.36
2018-11-26T09:44:43.663Z,6.29
2018-11-26T09:47:13.479Z,6.39
2018-11-26T09:49:43.262Z,6.41
2018-11-26T09:52:13.098Z,6.30
2018-11-26T09:54:42.899Z,6.28
2018-11-26T09:57:12.759Z,6.21
2018-11-26T09:59:42.676Z,6.21
2018-11-26T10:02:12.588Z,6.13
2018-11-26T10:04:42.535Z,6.13
2018-11-26T10:07:12.518Z,6.10
2018-11-26T10:09:42.386Z,6.06
2018-11-26T10:12:12.351Z,6.05
2018-11-26T10:14:42.191Z,6.19
2018-11-26T10:17:12.095Z,6.29
2018-11-26T10:19:41.854Z,6.33
2018-11-26T10:22:11.719Z,6.48
2018-11-26T10:24:41.581Z,6.54
2018-11-26T10:27:11.369Z,6.56
2018-11-26T10:29:41.368Z,6.69
2018-11-26T10:32:11.233Z,6.73
2018-11-26T10:34:41.059Z,6.64
2018-11-26T10:37:11.160Z,6.60
2018-11-26T10:39:40.951Z,6.68
2018-11-26T10:42:10.897Z,6.88
2018-11-26T10:44:40.726Z,6.95
2018-11-26T10:47:10.823Z,6.86
2018-11-26T10:49:40.655Z,7.13
2018-11-26T10:52:10.588Z,7.12
2018-11-26T10:54:40.445Z,7.24
2018-11-26T10:57:10.227Z,7.28
2018-11-26T10:59:40.335Z,7.29
2018-11-26T11:02:15.738Z,7.20
2018-11-26T11:04:47.745Z,7.06
2018-11-26T11:07:15.488Z,7.14
2018-11-26T11:09:45.392Z,7.01
2018-11-26T11:12:15.282Z,7.00
2018-11-26T11:14:45.163Z,6.89
2018-11-26T11:17:15.017Z,6.91
2018-11-26T11:19:44.823Z,6.80
2018-11-26T11:22:14.643Z,6.88
2018-11-26T11:24:44.496Z,6.93
2018-11-26T11:27:14.425Z,6.91
2018-11-26T11:29:44.325Z,6.90
2018-11-26T11:32:14.248Z,6.96
2018-11-26T11:34:44.270Z,6.82
2018-11-26T11:37:14.222Z,6.73
2018-11-26T11:39:44.297Z,6.61
2018-11-26T11:42:14.053Z,6.53
2018-11-26T11:44:43.929Z,6.53
2018-11-26T11:47:13.874Z,6.48
2018-11-26T11:49:43.744Z,6.33
2018-11-26T11:52:13.580Z,6.29
2018-11-26T11:54:43.468Z,6.44
2018-11-26T11:57:13.426Z,6.60
2018-11-26T11:59:43.185Z,6.67
2018-11-26T12:02:16.062Z,6.73
2018-11-26T12:04:43.399Z,6.70
2018-11-26T12:07:13.246Z,6.66
2018-11-26T12:09:43.171Z,6.49
2018-11-26T12:12:13.116Z,6.41
2018-11-26T12:14:43.009Z,6.32
2018-11-26T12:17:12.884Z,6.26
2018-11-26T12:19:42.688Z,6.27
2018-11-26T12:22:12.604Z,6.28
2018-11-26T12:24:42.424Z,6.20
2018-11-26T12:27:12.297Z,6.23
2018-11-26T12:29:42.158Z,6.13
2018-11-26T12:32:11.989Z,6.08
2018-11-26T12:34:41.853Z,6.10
2018-11-26T12:37:11.860Z,6.04
2018-11-26T12:39:42.371Z,6.05
2018-11-26T12:42:12.258Z,6.08
2018-11-26T12:44:51.491Z,6.00
2018-11-26T12:47:21.481Z,5.93
2018-11-26T12:49:51.332Z,5.97
2018-11-26T12:52:21.280Z,6.00
2018-11-26T12:54:51.478Z,6.04
2018-11-26T12:57:21.453Z,6.16
2018-11-26T12:59:51.260Z,6.25
2018-11-26T13:02:21.141Z,6.38
2018-11-26T13:04:51.034Z,6.46
2018-11-26T13:07:20.983Z,6.45
2018-11-26T13:09:51.011Z,6.52
2018-11-26T13:12:20.880Z,6.54
2018-11-26T13:14:50.900Z,6.62
2018-11-26T13:17:20.899Z,6.56
2018-11-26T13:19:50.692Z,6.64
2018-11-26T13:22:20.852Z,6.61
2018-11-26T13:24:50.808Z,6.59
2018-11-26T13:27:20.853Z,6.61
2018-11-26T13:29:50.677Z,6.63
2018-11-26T13:32:20.903Z,6.66
2018-11-26T13:34:51.057Z,6.66
2018-11-26T13:37:21.014Z,6.67
2018-11-26T13:39:50.877Z,6.62
2018-11-26T13:42:20.819Z,6.57
2018-11-26T13:44:51.317Z,6.48
2018-11-26T13:47:21.117Z,6.48
2018-11-26T13:49:51.093Z,6.40
2018-11-26T13:52:20.962Z,6.43
2018-11-26T13:54:50.920Z,6.39
2018-11-26T13:57:21.703Z,6.33
2018-11-26T13:59:51.636Z,6.30
2018-11-26T14:02:21.528Z,6.24
2018-11-26T14:04:51.859Z,6.17
2018-11-26T14:07:21.372Z,6.15
2018-11-26T14:09:51.293Z,6.07
2018-11-26T14:12:21.338Z,6.12
2018-11-26T14:14:51.759Z,6.07
2018-11-26T14:17:21.437Z,6.06
2018-11-26T14:19:51.344Z,6.02
2018-11-26T14:22:21.181Z,6.05
2018-11-26T14:24:52.153Z,6.05
2018-11-26T14:27:22.097Z,6.03
2018-11-26T14:29:52.033Z,6.01
2018-11-26T14:32:21.969Z,5.94
2018-11-26T14:34:51.852Z,5.96
2018-11-26T14:37:22.245Z,5.96
2018-11-26T14:39:52.108Z,5.94
2018-11-26T14:42:21.995Z,5.91
2018-11-26T14:44:51.993Z,5.89
2018-11-26T14:47:21.932Z,5.86
2018-11-26T14:49:52.039Z,5.88
2018-11-26T14:52:22.135Z,5.87
2018-11-26T14:54:52.152Z,5.83
2018-11-26T14:57:22.109Z,5.79
2018-11-26T14:59:51.934Z,5.78
2018-11-26T15:02:21.791Z,5.77
2018-11-26T15:04:51.769Z,5.76
2018-11-26T15:07:21.725Z,5.78
2018-11-26T15:09:51.546Z,5.79
2018-11-26T15:12:21.581Z,5.80
2018-11-26T15:14:52.186Z,5.77
2018-11-26T15:17:22.204Z,5.74
2018-11-26T15:19:52.037Z,5.74
2018-11-26T15:22:22.133Z,5.71
2018-11-26T15:24:52.057Z,5.72
2018-11-26T15:27:22.128Z,5.72
2018-11-26T15:29:52.279Z,5.75
2018-11-26T15:32:22.554Z,5.75
2018-11-26T15:34:52.494Z,5.72
2018-11-26T15:37:22.452Z,5.71
2018-11-26T15:39:52.357Z,5.68
2018-11-26T15:42:22.734Z,5.68
2018-11-26T15:44:53.990Z,5.68
2018-11-26T15:47:23.882Z,5.66
2018-11-26T15:49:53.916Z,5.65
2018-11-26T15:52:23.847Z,5.64
2018-11-26T15:54:53.798Z,5.62
2018-11-26T15:57:24.245Z,5.59
2018-11-26T15:59:54.309Z,5.58
2018-11-26T16:02:24.214Z,5.60
2018-11-26T16:04:54.165Z,5.58
2018-11-26T16:07:24.070Z,5.55
2018-11-26T16:09:54.043Z,5.49
2018-11-26T16:12:24.437Z,5.49
2018-11-26T16:14:54.754Z,5.46
2018-11-26T16:17:24.944Z,5.40
2018-11-26T16:19:54.994Z,5.38
2018-11-26T16:22:25.145Z,5.41
2018-11-26T16:24:55.262Z,5.39
2018-11-26T16:27:25.114Z,5.39
2018-11-26T16:29:55.448Z,5.35
2018-11-26T16:32:25.358Z,5.36
2018-11-26T16:34:55.683Z,5.34
2018-11-26T16:37:25.604Z,5.33
2018-11-26T16:39:56.821Z,5.33
2018-11-26T16:42:26.673Z,5.30
2018-11-26T16:44:56.728Z,5.27
2018-11-26T16:47:26.616Z,5.26
2018-11-26T16:49:56.543Z,5.28
2018-11-26T16:52:26.476Z,5.31
2018-11-26T16:54:56.384Z,5.33
2018-11-26T16:57:26.950Z,5.27
2018-11-26T16:59:56.988Z,5.28
2018-11-26T17:02:26.905Z,5.26
2018-11-26T17:04:56.817Z,5.23
2018-11-26T17:07:26.816Z,5.17
2018-11-26T17:09:56.661Z,5.19
2018-11-26T17:12:26.556Z,5.18
2018-11-26T17:14:56.481Z,5.24
2018-11-26T17:17:27.056Z,5.26
2018-11-26T17:19:56.905Z,5.22
2018-11-26T17:22:26.757Z,5.22
2018-11-26T17:24:56.668Z,5.18
2018-11-26T17:27:26.629Z,5.15
2018-11-26T17:29:56.637Z,5.16
2018-11-26T17:32:27.364Z,5.17
2018-11-26T17:34:57.252Z,5.15
2018-11-26T17:37:28.109Z,5.15
2018-11-26T17:39:57.936Z,5.12
2018-11-26T17:42:27.808Z,5.12
2018-11-26T17:44:57.742Z,5.11
2018-11-26T17:47:27.589Z,5.15
2018-11-26T17:49:57.581Z,5.17
2018-11-26T17:52:27.584Z,5.13
2018-11-26T17:54:57.505Z,5.13
2018-11-26T17:57:27.490Z,5.15
2018-11-26T17:59:57.584Z,5.14
2018-11-26T18:02:27.380Z,5.12
2018-11-26T18:04:57.572Z,5.09
2018-11-26T18:07:28.041Z,5.09
2018-11-26T18:09:57.968Z,5.10
2018-11-26T18:12:27.788Z,5.09
2018-11-26T18:14:57.765Z,5.06
2018-11-26T18:17:27.715Z,5.05
2018-11-26T18:19:57.962Z,5.09
2018-11-26T18:22:28.484Z,5.08
2018-11-26T18:24:58.427Z,5.05
2018-11-26T18:27:28.356Z,5.08
2018-11-26T18:29:58.416Z,4.99
2018-11-26T18:32:28.341Z,4.99
2018-11-26T18:34:58.509Z,5.02
2018-11-26T18:37:28.393Z,4.99
2018-11-26T18:39:58.392Z,4.98
2018-11-26T18:42:28.879Z,4.93
2018-11-26T18:44:58.880Z,4.91
2018-11-26T18:47:28.761Z,4.91
2018-11-26T18:49:59.515Z,4.93
2018-11-26T18:52:29.751Z,4.90
2018-11-26T18:55:00.325Z,4.94
2018-11-26T18:57:30.405Z,4.94
2018-11-26T19:00:01.058Z,4.93
2018-11-26T19:02:31.208Z,4.97
2018-11-26T19:05:01.218Z,4.96
2018-11-26T19:07:31.484Z,4.96
2018-11-26T19:10:01.624Z,4.99
2018-11-26T19:12:31.555Z,5.00
2018-11-26T19:15:01.776Z,4.99
2018-11-26T19:17:31.869Z,4.99
2018-11-26T19:20:01.933Z,5.00
2018-11-26T19:22:32.122Z,4.99
2018-11-26T19:25:02.019Z,5.04
2018-11-26T19:27:31.831Z,5.00
2018-11-26T19:30:02.004Z,4.98
2018-11-26T19:32:31.920Z,4.98
2018-11-26T19:35:01.926Z,4.99
2018-11-26T19:37:31.978Z,4.97
2018-11-26T19:40:02.011Z,4.93
2018-11-26T19:42:32.066Z,4.95
2018-11-26T19:45:01.994Z,4.89
2018-11-26T19:47:32.011Z,4.90
2018-11-26T19:50:02.484Z,4.93
2018-11-26T19:52:31.968Z,4.88
2018-11-26T19:55:02.300Z,4.92
2018-11-26T19:57:32.436Z,4.93
2018-11-26T20:00:03.450Z,4.94
2018-11-26T20:02:33.748Z,4.94
2018-11-26T20:05:04.721Z,4.96
2018-11-26T20:07:36.014Z,4.96
2018-11-26T20:10:08.570Z,4.96
2018-11-26T20:12:38.763Z,4.94
2018-11-26T20:15:12.641Z,4.90
2018-11-26T20:17:42.965Z,4.93
2018-11-26T20:20:12.977Z,4.93
2018-11-26T20:22:42.994Z,4.90
2018-11-26T20:25:14.753Z,4.87
2018-11-26T20:27:44.733Z,4.85
2018-11-26T20:30:15.839Z,4.85
2018-11-26T20:32:47.207Z,4.83
2018-11-26T20:35:17.388Z,4.78
2018-11-26T20:37:47.437Z,4.79
2018-11-26T20:40:17.686Z,4.75
2018-11-26T20:42:50.996Z,4.74
2018-11-26T20:45:21.372Z,4.75
2018-11-26T20:47:52.768Z,4.70
2018-11-26T20:50:26.915Z,4.68
2018-11-26T20:52:56.934Z,4.71
2018-11-26T20:55:27.142Z,4.72
2018-11-26T20:57:57.656Z,4.68
2018-11-26T21:00:28.865Z,4.73
2018-11-26T21:03:05.072Z,4.74
2018-11-26T21:05:35.593Z,4.68
2018-11-26T21:08:05.563Z,4.66
2018-11-26T21:10:35.393Z,4.62
2018-11-26T21:13:05.517Z,4.62
2018-11-26T21:15:35.455Z,4.59
2018-11-26T21:18:10.888Z,4.63
2018-11-26T21:20:43.525Z,4.65
2018-11-26T21:23:22.792Z,4.66
2018-11-26T21:25:53.128Z,4.67
2018-11-26T21:28:23.184Z,4.62
2018-11-26T21:30:53.726Z,4.62
2018-11-26T21:33:24.601Z,4.64
2018-11-26T21:35:54.537Z,4.65
2018-11-26T21:38:24.532Z,4.62
2018-11-26T21:40:54.423Z,4.64
2018-11-26T21:43:24.516Z,4.62
2018-11-26T21:45:57.499Z,4.66
2018-11-26T21:48:27.985Z,4.68
2018-11-26T21:50:57.947Z,4.69
2018-11-26T21:53:27.840Z,4.72
2018-11-26T21:55:57.787Z,4.70
2018-11-26T21:58:27.729Z,4.68
2018-11-26T22:00:58.760Z,4.65
2018-11-26T22:03:30.681Z,4.67
2018-11-26T22:05:58.929Z,4.66
2018-11-26T22:08:29.033Z,4.63
2018-11-26T22:10:59.532Z,4.63
2018-11-26T22:13:29.414Z,4.65
2018-11-26T22:15:59.403Z,4.67
2018-11-26T22:18:30.594Z,4.70
2018-11-26T22:21:00.489Z,4.65
2018-11-26T22:23:30.378Z,4.65
2018-11-26T22:26:00.340Z,4.62
2018-11-26T22:28:31.625Z,4.63
2018-11-26T22:31:01.503Z,4.61
2018-11-26T22:33:31.630Z,4.57
2018-11-26T22:36:01.516Z,4.55
2018-11-26T22:38:31.705Z,4.52
2018-11-26T22:41:01.595Z,4.51
2018-11-26T22:43:31.816Z,4.50
2018-11-26T22:46:02.021Z,4.48
2018-11-26T22:48:32.171Z,4.45
2018-11-26T22:51:02.357Z,4.46
2018-11-26T22:53:32.312Z,4.44
2018-11-26T22:56:02.319Z,4.42
2018-11-26T22:58:32.252Z,4.43
2018-11-26T23:01:02.132Z,4.42
2018-11-26T23:03:32.265Z,4.45
2018-11-26T23:06:02.194Z,4.41
2018-11-26T23:08:32.013Z,4.40
2018-11-26T23:11:01.852Z,4.42
2018-11-26T23:13:31.664Z,4.45
2018-11-26T23:16:01.582Z,4.45
2018-11-26T23:18:31.475Z,4.42
2018-11-26T23:21:01.280Z,4.41
2018-11-26T23:23:31.096Z,4.40
2018-11-26T23:26:00.961Z,4.37
2018-11-26T23:28:30.816Z,4.32
2018-11-26T23:31:00.616Z,4.33
2018-11-26T23:33:30.467Z,4.27
2018-11-26T23:36:00.260Z,4.28
2018-11-26T23:38:30.016Z,4.25
2018-11-26T23:40:59.887Z,4.27
2018-11-26T23:43:29.638Z,4.22
2018-11-26T23:45:59.491Z,4.18
2018-11-26T23:48:29.324Z,4.14
2018-11-26T23:50:59.132Z,4.13
2018-11-26T23:53:28.953Z,4.10
2018-11-26T23:55:58.756Z,4.06
2018-11-26T23:58:28.569Z,4.04
